Time;durP1;ratioP1;P1;durP2;ratioP2;P2;SDS_P1;SDS_P2;PMS_P1;PMS_P2;Temp;Humidity;BMP_temperature;BMP_pressure;BME280_temperature;BME280_humidity;BME280_pressure;Samples;Min_cycle;Max_cycle;Signal;HPM_P1;HPM_P2
2023/10/11 00:01:58;;;;;;;4.43;3.55;;;19.30;71.50;;;;;;5112839;28;20216;-65
2023/10/11 00:04:23;;;;;;;5.18;4.35;;;19.30;71.40;;;;;;5112634;28;20177;-66
2023/10/11 00:06:54;;;;;;;4.38;3.97;;;19.30;71.40;;;;;;5112144;28;20546;-66
2023/10/11 00:09:34;;;;;;;5.10;4.15;;;19.30;71.30;;;;;;5112644;28;20180;-65
2023/10/11 00:12:04;;;;;;;5.13;4.32;;;19.30;71.30;;;;;;5112689;28;20173;-65
2023/10/11 00:14:30;;;;;;;5.15;3.92;;;19.20;71.20;;;;;;5111863;28;20177;-65
2023/10/11 00:16:56;;;;;;;6.10;4.30;;;19.20;71.20;;;;;;5112727;28;20188;-65
2023/10/11 00:19:27;;;;;;;5.05;3.70;;;19.20;71.30;;;;;;5112196;28;20173;-65
2023/10/11 00:21:53;;;;;;;4.30;3.83;;;19.20;71.20;;;;;;5112055;28;20248;-65
2023/10/11 00:24:23;;;;;;;4.57;3.80;;;19.20;71.20;;;;;;5111988;28;20599;-65
2023/10/11 00:26:49;;;;;;;6.00;4.63;;;19.30;71.30;;;;;;5112826;28;20174;-65
2023/10/11 00:29:15;;;;;;;5.20;4.32;;;19.20;71.20;;;;;;5111510;28;20170;-65
2023/10/11 00:31:41;;;;;;;5.22;4.28;;;19.20;71.20;;;;;;5115037;28;20246;-66
2023/10/11 00:34:12;;;;;;;6.05;4.28;;;19.20;71.30;;;;;;5116355;28;20165;-65
2023/10/11 00:36:38;;;;;;;4.40;3.90;;;19.20;71.10;;;;;;5115652;28;20211;-66
2023/10/11 00:39:07;;;;;;;5.15;4.65;;;19.20;71.10;;;;;;5116273;28;20532;-65
2023/10/11 00:41:39;;;;;;;4.60;3.90;;;19.20;71.20;;;;;;5115330;28;20212;-66
2023/10/11 00:44:05;;;;;;;5.47;4.30;;;19.20;71.10;;;;;;5115960;28;20196;-65
2023/10/11 00:46:44;;;;;;;7.30;4.28;;;19.20;71.10;;;;;;5115776;28;20635;-67
2023/10/11 00:49:11;;;;;;;6.95;4.28;;;19.20;71.20;;;;;;5115139;28;20188;-66
2023/10/11 00:51:39;;;;;;;4.20;3.80;;;19.20;71.10;;;;;;5116126;28;20181;-65
2023/10/11 00:54:05;;;;;;;5.20;4.05;;;19.20;71.10;;;;;;5115844;28;20303;-65
2023/10/11 00:56:33;;;;;;;5.70;4.18;;;19.20;71.10;;;;;;5114989;28;20636;-66
2023/10/11 00:59:08;;;;;;;5.45;4.18;;;19.20;71.20;;;;;;5115768;28;20631;-65
2023/10/11 01:01:37;;;;;;;4.90;4.30;;;19.20;71.30;;;;;;5115851;28;20204;-65
2023/10/11 01:04:04;;;;;;;4.97;3.75;;;19.20;71.20;;;;;;5115036;28;20173;-65
2023/10/11 01:06:29;;;;;;;6.43;4.05;;;19.20;71.10;;;;;;5115643;28;20177;-65
2023/10/11 01:08:55;;;;;;;4.35;3.90;;;19.20;71.10;;;;;;5115678;28;20682;-65
2023/10/11 01:11:21;;;;;;;5.47;4.45;;;19.20;71.10;;;;;;5114597;28;20192;-65
2023/10/11 01:13:53;;;;;;;6.30;4.32;;;19.20;71.00;;;;;;5115420;28;20584;-65
2023/10/11 01:16:28;;;;;;;4.93;4.43;;;19.20;71.00;;;;;;5115222;28;20523;-65
2023/10/11 01:18:54;;;;;;;5.25;3.83;;;19.20;71.10;;;;;;5115426;28;20257;-65
2023/10/11 01:21:20;;;;;;;5.88;4.15;;;19.20;71.10;;;;;;5115128;28;20802;-65
2023/10/11 01:23:45;;;;;;;5.38;3.97;;;19.20;71.10;;;;;;5114552;28;20173;-65
2023/10/11 01:26:11;;;;;;;4.35;3.92;;;19.20;71.00;;;;;;5115199;28;20173;-65
2023/10/11 01:28:38;;;;;;;5.53;4.38;;;19.20;71.00;;;;;;5115456;28;20192;-66
2023/10/11 01:31:08;;;;;;;5.05;4.38;;;19.20;71.00;;;;;;5114486;28;20174;-65
2023/10/11 01:33:35;;;;;;;6.35;4.43;;;19.20;71.00;;;;;;5115329;28;20180;-66
2023/10/11 01:36:04;;;;;;;5.63;4.30;;;19.20;71.00;;;;;;5115006;28;20639;-65
2023/10/11 01:38:32;;;;;;;5.10;4.00;;;19.20;71.00;;;;;;5114102;28;20585;-66
2023/10/11 01:40:58;;;;;;;4.40;4.00;;;19.20;70.90;;;;;;5115040;28;20208;-65
2023/10/11 01:43:23;;;;;;;4.95;4.00;;;19.20;70.90;;;;;;5114958;28;20175;-66
2023/10/11 01:45:49;;;;;;;6.32;4.60;;;19.20;70.90;;;;;;5113911;28;20264;-66
2023/10/11 01:48:15;;;;;;;5.07;4.43;;;19.20;71.00;;;;;;5114327;28;20303;-66
2023/10/11 01:50:40;;;;;;;5.18;4.00;;;19.20;71.00;;;;;;5114901;28;20181;-66
2023/10/11 01:53:08;;;;;;;5.13;4.38;;;19.20;71.00;;;;;;5113917;28;20230;-66
2023/10/11 01:55:39;;;;;;;4.57;3.78;;;19.20;70.90;;;;;;5114609;28;20173;-66
2023/10/11 01:58:06;;;;;;;4.90;4.18;;;19.20;70.90;;;;;;5114690;28;20165;-65
2023/10/11 02:00:32;;;;;;;5.13;4.38;;;19.20;70.90;;;;;;5113759;28;20177;-66
2023/10/11 02:02:58;;;;;;;5.10;4.40;;;19.20;70.90;;;;;;5114416;28;20184;-65
2023/10/11 02:05:23;;;;;;;5.55;3.92;;;19.20;70.80;;;;;;5114250;28;20176;-65
2023/10/11 02:07:50;;;;;;;4.88;4.03;;;19.20;70.90;;;;;;5114050;28;20177;-66
2023/10/11 02:10:16;;;;;;;4.70;3.83;;;19.20;70.80;;;;;;5114355;28;20177;-65
2023/10/11 02:12:44;;;;;;;4.05;3.75;;;19.20;70.90;;;;;;5114294;28;20507;-66
2023/10/11 02:15:11;;;;;;;6.53;4.20;;;19.10;70.80;;;;;;5113887;28;20177;-65
2023/10/11 02:17:39;;;;;;;5.93;3.97;;;19.20;70.80;;;;;;5114321;28;20643;-65
2023/10/11 02:20:17;;;;;;;7.10;4.78;;;19.20;70.90;;;;;;5113201;28;20503;-65
2023/10/11 02:22:44;;;;;;;5.20;4.30;;;19.10;70.80;;;;;;5114335;28;20285;-65
2023/10/11 02:25:15;;;;;;;5.30;4.10;;;19.10;70.80;;;;;;5114162;28;20173;-65
2023/10/11 02:27:44;;;;;;;6.35;4.35;;;19.20;70.80;;;;;;5113321;28;20632;-65
2023/10/11 02:30:14;;;;;;;6.03;4.32;;;19.10;70.70;;;;;;5113387;28;20185;-65
2023/10/11 02:32:42;;;;;;;5.68;4.60;;;19.10;71.50;;;;;;5113895;28;20566;-66
2023/10/11 02:35:12;;;;;;;4.45;3.97;;;19.10;70.60;;;;;;5113262;28;20238;-65
2023/10/11 02:37:37;;;;;;;5.38;4.45;;;19.10;70.80;;;;;;5113998;28;20219;-65
2023/10/11 02:40:08;;;;;;;4.95;4.07;;;19.20;70.80;;;;;;5113834;28;20560;-65
2023/10/11 02:42:36;;;;;;;6.35;4.97;;;19.10;70.80;;;;;;5112948;28;20683;-66
2023/10/11 02:45:07;;;;;;;6.85;4.50;;;19.10;70.60;;;;;;5113537;28;20624;-66
2023/10/11 02:47:35;;;;;;;6.45;4.30;;;19.10;70.60;;;;;;5113646;28;20233;-66
2023/10/11 02:50:06;;;;;;;4.60;4.20;;;19.10;70.50;;;;;;5112992;28;20173;-65
2023/10/11 02:52:39;;;;;;;5.50;3.90;;;19.10;70.50;;;;;;5113577;28;20173;-66
2023/10/11 02:55:21;;;;;;;5.75;4.35;;;19.10;70.60;;;;;;5112519;28;20639;-65
2023/10/11 02:57:47;;;;;;;5.43;4.25;;;19.10;70.50;;;;;;5113546;28;20184;-66
2023/10/11 03:00:22;;;;;;;4.53;4.13;;;19.10;70.50;;;;;;5113231;28;20169;-66
2023/10/11 03:02:56;;;;;;;4.85;4.43;;;19.10;70.50;;;;;;5112950;28;20208;-65
2023/10/11 03:05:27;;;;;;;6.50;4.53;;;19.10;70.40;;;;;;5113177;28;20187;-65
2023/10/11 03:07:53;;;;;;;5.25;4.18;;;19.10;70.50;;;;;;5113344;28;20570;-65
2023/10/11 03:10:19;;;;;;;6.07;4.60;;;19.10;71.40;;;;;;5112408;28;20537;-65
2023/10/11 03:12:44;;;;;;;4.70;4.13;;;19.10;70.50;;;;;;5113220;28;20646;-65
2023/10/11 03:15:11;;;;;;;5.00;4.50;;;19.10;70.50;;;;;;5113166;28;20188;-65
2023/10/11 03:17:45;;;;;;;4.63;4.18;;;19.10;70.40;;;;;;5112613;28;20169;-66
2023/10/11 03:20:35;;;;;;;5.32;4.55;;;19.10;70.40;;;;;;5113044;28;20193;-64
2023/10/11 03:22:59;;;;;;;6.22;4.70;;;19.10;70.40;;;;;;5113115;28;20183;-65
2023/10/11 03:25:28;;;;;;;6.65;4.97;;;19.10;70.40;;;;;;5112248;28;20519;-65
2023/10/11 03:27:54;;;;;;;7.45;4.93;;;19.10;70.50;;;;;;5113071;28;20173;-65
2023/10/11 03:30:24;;;;;;;4.68;4.22;;;19.10;70.40;;;;;;5112203;28;20184;-65
2023/10/11 03:32:49;;;;;;;5.63;4.00;;;19.10;70.40;;;;;;5113205;28;20177;-66
2023/10/11 03:35:18;;;;;;;5.38;4.30;;;19.10;70.30;;;;;;5112661;28;20176;-66
2023/10/11 03:37:57;;;;;;;6.00;4.63;;;19.10;70.40;;;;;;5112117;28;20173;-66
2023/10/11 03:40:34;;;;;;;4.53;4.10;;;19.10;70.40;;;;;;5112890;28;20187;-65
2023/10/11 03:43:11;;;;;;;5.32;4.38;;;19.10;70.40;;;;;;5112822;28;20176;-66
2023/10/11 03:45:39;;;;;;;5.40;4.63;;;19.00;70.30;;;;;;5112094;28;20208;-65
2023/10/11 03:48:09;;;;;;;5.03;4.53;;;19.00;70.30;;;;;;5112633;28;20236;-66
2023/10/11 03:50:36;;;;;;;4.80;4.32;;;19.10;70.40;;;;;;5112992;28;20177;-66
2023/10/11 03:53:10;;;;;;;4.53;4.13;;;19.00;70.30;;;;;;5112077;28;20173;-65
2023/10/11 03:55:46;;;;;;;6.20;4.68;;;19.00;70.20;;;;;;5112675;28;20716;-65
2023/10/11 03:58:23;;;;;;;5.40;4.72;;;19.00;70.30;;;;;;5112476;28;20176;-65
2023/10/11 04:00:49;;;;;;;5.47;4.38;;;19.00;70.40;;;;;;5112946;28;20254;-65
2023/10/11 04:03:17;;;;;;;6.55;4.97;;;19.00;70.30;;;;;;5112495;28;20635;-66
2023/10/11 04:05:47;;;;;;;5.25;4.72;;;19.00;70.30;;;;;;5113443;28;20195;-65
2023/10/11 04:08:18;;;;;;;5.25;4.13;;;19.00;70.30;;;;;;5116524;28;20248;-65
2023/10/11 04:10:49;;;;;;;5.90;4.50;;;19.00;70.40;;;;;;5116821;28;20271;-66
2023/10/11 04:13:15;;;;;;;7.18;4.78;;;19.00;70.30;;;;;;5116023;28;20181;-65
2023/10/11 04:15:41;;;;;;;4.88;4.30;;;19.00;70.20;;;;;;5116763;28;20181;-65
2023/10/11 04:18:20;;;;;;;4.82;4.32;;;19.00;70.30;;;;;;5116481;28;20177;-65
2023/10/11 04:20:59;;;;;;;4.75;4.25;;;19.00;70.30;;;;;;5115823;28;20173;-65
2023/10/11 04:23:27;;;;;;;4.93;4.43;;;19.00;70.30;;;;;;5116622;28;20181;-65
2023/10/11 04:25:55;;;;;;;5.75;4.55;;;19.00;70.40;;;;;;5116675;28;20173;-65
2023/10/11 04:28:23;;;;;;;5.15;4.65;;;19.00;70.30;;;;;;5115558;28;20181;-65
2023/10/11 04:30:53;;;;;;;5.80;4.30;;;19.00;70.40;;;;;;5116443;28;20181;-66
2023/10/11 04:33:22;;;;;;;5.38;4.63;;;19.00;70.40;;;;;;5116050;28;20199;-65
2023/10/11 04:35:57;;;;;;;8.13;5.05;;;19.00;70.30;;;;;;5115892;28;20184;-65
2023/10/11 04:38:23;;;;;;;5.38;4.57;;;19.00;70.30;;;;;;5116253;28;20202;-65
2023/10/11 04:40:52;;;;;;;4.93;4.35;;;19.00;70.30;;;;;;5115745;28;20201;-65
2023/10/11 04:43:20;;;;;;;5.10;4.55;;;19.00;70.40;;;;;;5115899;28;20181;-66
2023/10/11 04:45:51;;;;;;;5.53;4.95;;;19.00;70.30;;;;;;5116112;28;20173;-66
2023/10/11 04:48:30;;;;;;;5.43;4.57;;;19.00;70.50;;;;;;5114905;28;20307;-66
2023/10/11 04:51:04;;;;;;;5.85;4.75;;;19.00;70.40;;;;;;5116347;28;20264;-65
2023/10/11 04:53:34;;;;;;;6.32;5.22;;;19.00;70.30;;;;;;5115916;28;20180;-65
2023/10/11 04:56:04;;;;;;;6.82;5.47;;;19.00;70.30;;;;;;5114968;28;20188;-66
2023/10/11 04:58:42;;;;;;;6.00;4.70;;;19.00;70.30;;;;;;5116161;28;20202;-66
2023/10/11 05:01:12;;;;;;;4.72;4.22;;;19.00;70.40;;;;;;5115869;28;20310;-66
2023/10/11 05:03:42;;;;;;;6.22;4.40;;;19.00;70.30;;;;;;5115068;28;20169;-66
2023/10/11 05:06:15;;;;;;;5.70;4.60;;;18.90;70.40;;;;;;5115649;28;20339;-66
2023/10/11 05:11:36;;;;;;;6.63;5.00;;;19.00;70.30;;;;;;5091404;28;20659;-66
2023/10/11 05:16:49;;;;;;;5.00;4.50;;;18.90;70.40;;;;;;5099075;28;20211;-66
2023/10/11 05:19:20;;;;;;;5.25;4.63;;;19.00;70.50;;;;;;5115188;28;20177;-65
2023/10/11 05:21:52;;;;;;;5.47;4.65;;;18.90;70.40;;;;;;5115545;28;20223;-65
2023/10/11 05:24:43;;;;;;;5.07;4.57;;;18.90;70.50;;;;;;5114547;28;20177;-66
2023/10/11 05:27:26;;;;;;;5.97;4.97;;;18.90;70.40;;;;;;5115050;28;20546;-65
2023/10/11 05:33:15;;;;;;;5.95;4.93;;;18.90;70.40;;;;;;5115465;28;20610;-66
2023/10/11 05:51:50;;;;;;;5.63;4.50;;;18.90;70.40;;;;;;5114269;28;20176;-67
2023/10/11 05:54:16;;;;;;;5.53;4.68;;;18.90;70.30;;;;;;5114594;28;20177;-67
2023/10/11 05:56:47;;;;;;;5.65;4.93;;;18.90;70.40;;;;;;5114660;28;20178;-67
2023/10/11 05:59:14;;;;;;;6.65;4.93;;;18.90;70.40;;;;;;5113970;28;20173;-67
2023/10/11 06:01:43;;;;;;;6.35;5.10;;;18.90;70.50;;;;;;5114403;28;20659;-67
2023/10/11 06:04:08;;;;;;;7.07;5.28;;;18.90;70.40;;;;;;5114485;28;20225;-66
2023/10/11 06:06:42;;;;;;;5.65;4.88;;;18.90;70.30;;;;;;5113956;28;20169;-64
2023/10/11 06:09:16;;;;;;;6.32;5.13;;;18.90;70.30;;;;;;5114429;28;20537;-66
2023/10/11 06:11:47;;;;;;;5.53;4.93;;;18.90;71.10;;;;;;5114372;28;20532;-66
2023/10/11 06:14:16;;;;;;;5.43;4.93;;;18.90;70.30;;;;;;5113657;28;20173;-66
2023/10/11 06:16:43;;;;;;;6.85;5.55;;;18.90;70.30;;;;;;5114446;28;20248;-66
2023/10/11 06:22:10;;;;;;;7.15;5.55;;;18.90;70.20;;;;;;5079506;28;20725;-65
2023/10/11 06:24:38;;;;;;;7.43;5.47;;;18.90;70.20;;;;;;5114302;28;20176;-65
2023/10/11 06:29:37;;;;;;;4.80;4.38;;;18.90;70.20;;;;;;5113451;28;20172;-65
2023/10/11 06:32:10;;;;;;;6.30;5.43;;;18.90;70.20;;;;;;5113854;28;20260;-65
2023/10/11 06:34:35;;;;;;;6.22;5.30;;;18.90;70.20;;;;;;5113204;28;20184;-66
2023/10/11 06:37:01;;;;;;;5.50;4.93;;;18.90;70.30;;;;;;5113946;28;20177;-65
2023/10/11 06:42:21;;;;;;;5.32;4.82;;;19.00;70.40;;;;;;5113119;28;20277;-65
2023/10/11 06:44:47;;;;;;;7.15;4.97;;;18.90;70.20;;;;;;5113894;28;20248;-65
2023/10/11 06:47:13;;;;;;;6.00;4.97;;;18.90;70.10;;;;;;5112759;28;20220;-65
2023/10/11 06:49:47;;;;;;;5.13;4.57;;;18.90;70.20;;;;;;5113820;28;20542;-65
2023/10/11 06:52:17;;;;;;;6.57;5.25;;;18.90;70.20;;;;;;5113504;28;20181;-65
2023/10/11 06:54:46;;;;;;;7.70;5.45;;;19.00;70.00;;;;;;5112926;28;20173;-66
2023/10/11 06:57:20;;;;;;;7.55;5.22;;;19.00;70.00;;;;;;5113197;28;20257;-65
2023/10/11 06:59:49;;;;;;;8.18;5.22;;;19.00;70.00;;;;;;5113603;28;20310;-65
2023/10/11 07:02:18;;;;;;;5.90;5.30;;;19.00;69.90;;;;;;5112432;28;20662;-65
2023/10/11 07:04:50;;;;;;;5.30;4.80;;;19.00;69.90;;;;;;5113490;28;20180;-64
2023/10/11 07:07:17;;;;;;;6.43;5.32;;;19.00;70.00;;;;;;5113148;28;20188;-64
2023/10/11 07:09:56;;;;;;;6.57;5.28;;;19.00;70.20;;;;;;5112616;28;20252;-64
2023/10/11 07:12:28;;;;;;;7.55;5.53;;;19.00;70.10;;;;;;5113127;28;20276;-65
2023/10/11 07:14:57;;;;;;;7.80;5.70;;;19.00;69.80;;;;;;5113328;28;20226;-65
2023/10/11 07:17:25;;;;;;;5.95;5.22;;;19.00;70.00;;;;;;5112655;28;20581;-66
2023/10/11 07:19:51;;;;;;;6.32;5.60;;;19.00;69.80;;;;;;5113158;28;20604;-65
2023/10/11 07:22:25;;;;;;;6.10;5.28;;;19.00;69.90;;;;;;5112025;28;20703;-65
2023/10/11 07:25:18;;;;;;;6.60;4.88;;;19.00;70.00;;;;;;5113437;28;20168;-65
2023/10/11 07:27:43;;;;;;;7.78;5.47;;;19.00;70.20;;;;;;5112950;28;20230;-65
2023/10/11 07:30:16;;;;;;;5.13;4.63;;;19.00;70.10;;;;;;5112213;28;20204;-65
2023/10/11 07:32:42;;;;;;;6.28;5.35;;;19.00;70.20;;;;;;5112888;28;20185;-66
2023/10/11 07:35:17;;;;;;;7.53;5.03;;;19.00;70.20;;;;;;5111909;28;20181;-66
2023/10/11 07:37:43;;;;;;;6.78;5.53;;;19.00;70.20;;;;;;5112394;28;20244;-66
2023/10/11 07:40:18;;;;;;;8.27;5.55;;;19.00;70.40;;;;;;5112531;28;20620;-65
2023/10/11 07:42:47;;;;;;;5.75;5.03;;;19.00;70.30;;;;;;5112781;28;20208;-66
2023/10/11 07:45:13;;;;;;;5.68;5.18;;;19.00;70.30;;;;;;5111886;28;20179;-66
2023/10/11 07:47:45;;;;;;;5.78;4.95;;;19.00;70.20;;;;;;5112753;28;20301;-66
2023/10/11 07:50:14;;;;;;;6.60;5.65;;;19.00;70.30;;;;;;5112788;28;20180;-65
2023/10/11 07:52:41;;;;;;;5.50;4.97;;;19.00;70.50;;;;;;5112115;28;20177;-66
2023/10/11 07:55:08;;;;;;;6.55;5.47;;;19.00;70.40;;;;;;5112833;28;20274;-66
2023/10/11 07:57:39;;;;;;;6.20;5.60;;;19.00;70.30;;;;;;5112174;28;20180;-66
2023/10/11 08:00:16;;;;;;;6.65;5.75;;;19.00;70.50;;;;;;5112689;28;20521;-65
2023/10/11 08:02:42;;;;;;;6.00;5.22;;;19.00;70.50;;;;;;5112783;28;20280;-65
2023/10/11 08:05:12;;;;;;;6.65;5.75;;;19.00;70.50;;;;;;5111880;28;20778;-65
2023/10/11 08:07:40;;;;;;;7.28;5.75;;;19.00;70.40;;;;;;5112696;28;20169;-65
2023/10/11 08:12:50;;;;;;;8.00;5.57;;;19.10;70.20;;;;;;5111964;28;20243;-66
2023/10/11 08:15:21;;;;;;;7.10;5.90;;;19.10;70.20;;;;;;5112569;28;20188;-66
2023/10/11 08:17:46;;;;;;;6.80;5.68;;;19.10;69.90;;;;;;5112668;28;20177;-65
2023/10/11 08:20:15;;;;;;;6.60;5.82;;;19.10;70.00;;;;;;5111574;28;20165;-65
2023/10/11 08:22:41;;;;;;;5.50;4.88;;;19.10;69.90;;;;;;5112473;28;20237;-66
2023/10/11 08:25:12;;;;;;;7.35;5.53;;;19.20;69.80;;;;;;5112586;28;20192;-65
2023/10/11 08:27:38;;;;;;;7.93;6.07;;;19.20;69.80;;;;;;5112020;28;20188;-65
2023/10/11 08:30:08;;;;;;;9.45;5.80;;;19.20;69.70;;;;;;5112429;28;20534;-65
2023/10/11 08:32:43;;;;;;;7.55;5.70;;;19.30;69.80;;;;;;5111870;28;20196;-66
2023/10/11 08:35:09;;;;;;;7.18;5.57;;;19.30;69.70;;;;;;5112192;28;20183;-66
2023/10/11 08:37:37;;;;;;;7.63;5.97;;;19.30;69.60;;;;;;5112267;28;20214;-65
2023/10/11 08:40:19;;;;;;;6.88;6.18;;;19.30;69.60;;;;;;5111713;28;20204;-64
2023/10/11 08:42:51;;;;;;;7.32;6.03;;;19.30;69.70;;;;;;5112243;28;20224;-66
2023/10/11 08:45:47;;;;;;;7.60;6.53;;;19.30;69.90;;;;;;5112084;28;20310;-66
2023/10/11 08:48:12;;;;;;;7.53;6.45;;;19.20;70.00;;;;;;5111102;28;20260;-65
2023/10/11 08:50:38;;;;;;;7.22;5.53;;;19.20;70.10;;;;;;5112180;28;20209;-66
2023/10/11 08:53:13;;;;;;;7.55;6.10;;;19.20;70.10;;;;;;5115377;28;20179;-66
2023/10/11 08:55:39;;;;;;;6.80;5.55;;;19.20;70.20;;;;;;5096982;28;20187;-66
2023/10/11 08:58:12;;;;;;;9.02;6.70;;;19.20;70.20;;;;;;5115456;28;20181;-65
2023/10/11 09:00:39;;;;;;;6.43;5.78;;;19.20;70.20;;;;;;5116075;28;20173;-66
2023/10/11 09:03:20;;;;;;;5.70;5.00;;;19.20;70.30;;;;;;5115167;28;20189;-66
2023/10/11 09:05:47;;;;;;;6.32;5.68;;;19.20;70.40;;;;;;5115716;28;20177;-66
2023/10/11 09:08:26;;;;;;;9.63;6.20;;;19.20;70.40;;;;;;5114729;28;20200;-65
2023/10/11 09:10:52;;;;;;;7.50;6.25;;;19.20;70.50;;;;;;5115452;28;20173;-66
2023/10/11 09:13:26;;;;;;;6.85;6.15;;;19.20;70.50;;;;;;5115333;28;20758;-66
2023/10/11 09:15:54;;;;;;;9.20;6.47;;;19.10;70.50;;;;;;5114969;28;20181;-65
2023/10/11 09:18:19;;;;;;;7.47;6.20;;;19.10;70.60;;;;;;5115342;28;20237;-65
2023/10/11 09:23:49;;;;;;;9.50;6.55;;;19.10;71.20;;;;;;5080043;28;20249;-65
2023/10/11 09:26:34;;;;;;;8.73;6.22;;;19.10;70.70;;;;;;5115186;28;20169;-65
2023/10/11 09:29:03;;;;;;;7.97;7.13;;;19.10;70.80;;;;;;5099211;28;20184;-66
2023/10/11 09:31:31;;;;;;;8.50;6.95;;;19.10;70.80;;;;;;5115059;28;20647;-65
2023/10/11 09:34:00;;;;;;;8.13;6.35;;;19.10;70.60;;;;;;5115499;28;20177;-65
2023/10/11 09:36:25;;;;;;;8.52;7.68;;;19.10;70.80;;;;;;5114386;28;20206;-66
2023/10/11 09:38:54;;;;;;;8.07;6.88;;;19.10;70.80;;;;;;5115123;28;20177;-66
2023/10/11 09:41:23;;;;;;;8.95;7.18;;;19.10;70.80;;;;;;5114791;28;20212;-66
2023/10/11 09:43:49;;;;;;;8.75;6.22;;;19.10;70.90;;;;;;5114415;28;20177;-66
2023/10/11 09:46:15;;;;;;;7.68;6.78;;;19.10;70.90;;;;;;5114944;28;20525;-66
2023/10/11 09:48:41;;;;;;;7.65;6.70;;;19.10;71.00;;;;;;5114774;28;20217;-67
2023/10/11 09:51:13;;;;;;;8.80;7.35;;;19.10;71.10;;;;;;5113894;28;20546;-66
2023/10/11 09:53:42;;;;;;;7.38;6.60;;;19.10;71.10;;;;;;5114872;28;20184;-66
2023/10/11 09:56:23;;;;;;;9.10;7.40;;;19.10;71.10;;;;;;5096912;28;20172;-65
2023/10/11 09:58:58;;;;;;;9.93;7.35;;;19.10;71.10;;;;;;5096195;28;20601;-66
2023/10/11 10:02:02;;;;;;;8.23;7.28;;;19.10;71.20;;;;;;5096378;28;20244;-66
2023/10/11 10:04:50;;;;;;;9.82;7.32;;;19.10;71.30;;;;;;5056760;28;20204;-65
2023/10/11 10:10:06;;;;;;;9.85;7.43;;;19.10;71.30;;;;;;5114449;28;20211;-64
2023/10/11 10:12:58;;;;;;;7.22;6.45;;;19.10;71.40;;;;;;5113566;28;20193;-65
2023/10/11 10:15:28;;;;;;;11.00;7.45;;;19.10;71.40;;;;;;5107322;28;20580;-65
2023/10/11 10:17:57;;;;;;;8.60;7.72;;;19.10;71.40;;;;;;5096712;28;20242;-65
2023/10/11 10:20:34;;;;;;;8.93;7.85;;;19.10;71.40;;;;;;5113809;28;20249;-64
2023/10/11 10:23:15;;;;;;;9.25;7.45;;;19.10;71.40;;;;;;5113943;28;20243;-64
2023/10/11 10:26:10;;;;;;;11.77;8.13;;;19.10;71.40;;;;;;5113359;28;20181;-64
2023/10/11 10:28:36;;;;;;;11.55;8.40;;;19.10;71.40;;;;;;5106813;28;20185;-65
2023/10/11 10:31:17;;;;;;;9.88;8.32;;;19.10;71.40;;;;;;5114054;28;20170;-65
2023/10/11 10:33:51;;;;;;;12.40;8.95;;;19.10;71.50;;;;;;5113325;28;20204;-65
2023/10/11 10:36:28;;;;;;;8.85;7.07;;;19.10;71.50;;;;;;5113706;28;20230;-65
2023/10/11 10:39:33;;;;;;;9.75;8.30;;;19.10;71.50;;;;;;5114062;28;20184;-65
2023/10/11 10:42:15;;;;;;;11.52;9.20;;;19.10;71.60;;;;;;5113710;28;20362;-65
2023/10/11 10:44:49;;;;;;;9.98;8.60;;;19.10;71.60;;;;;;5113922;28;20169;-65
2023/10/11 10:47:20;;;;;;;10.10;8.88;;;19.10;71.60;;;;;;5112750;28;20220;-65
2023/10/11 10:49:47;;;;;;;11.25;8.52;;;19.10;71.80;;;;;;5113355;28;20177;-64
2023/10/11 10:52:19;;;;;;;12.82;8.75;;;19.10;71.90;;;;;;5113121;28;20256;-64
2023/10/11 10:55:01;;;;;;;11.20;8.48;;;19.10;71.80;;;;;;5112106;28;20177;-65
2023/10/11 10:57:33;;;;;;;11.68;9.48;;;19.00;71.80;;;;;;5112751;28;20226;-66
2023/10/11 11:00:05;;;;;;;13.32;9.68;;;19.10;71.90;;;;;;5111934;28;20173;-65
2023/10/11 11:02:36;;;;;;;9.65;8.65;;;19.10;72.00;;;;;;5112028;28;20622;-65
2023/10/11 11:05:13;;;;;;;10.45;9.18;;;19.20;72.10;;;;;;5113057;28;20553;-65
2023/10/11 11:07:40;;;;;;;13.10;9.02;;;19.10;72.00;;;;;;5095808;28;20168;-64
2023/10/11 11:10:06;;;;;;;10.68;9.02;;;19.10;72.00;;;;;;5113220;28;20264;-64
2023/10/11 11:12:31;;;;;;;11.93;9.00;;;19.10;72.00;;;;;;5113019;28;20177;-64
2023/10/11 11:15:00;;;;;;;14.07;9.73;;;19.20;72.00;;;;;;5112388;28;20184;-64
2023/10/11 11:17:46;;;;;;;10.45;9.18;;;19.10;72.30;;;;;;5113106;28;20169;-64
2023/10/11 11:22:46;;;;;;;10.85;8.77;;;19.10;72.30;;;;;;5112586;28;20256;-64
2023/10/11 11:25:16;;;;;;;11.75;9.30;;;19.10;72.20;;;;;;5112802;28;20169;-64
2023/10/11 11:27:43;;;;;;;11.80;9.32;;;19.10;72.10;;;;;;5113001;28;20191;-64
2023/10/11 11:30:17;;;;;;;9.98;8.98;;;19.10;72.20;;;;;;5094137;28;20262;-64
2023/10/11 11:32:54;;;;;;;10.23;9.15;;;19.10;72.20;;;;;;5113218;28;20173;-65
2023/10/11 11:35:29;;;;;;;11.25;9.73;;;19.20;72.40;;;;;;5112801;28;20222;-64
2023/10/11 11:38:02;;;;;;;11.18;9.85;;;19.20;72.40;;;;;;5112966;28;20168;-65
2023/10/11 11:40:30;;;;;;;13.07;9.88;;;19.20;72.20;;;;;;5112671;28;20706;-65
2023/10/11 11:43:00;;;;;;;12.70;10.05;;;19.20;72.20;;;;;;5112197;28;20257;-65
2023/10/11 11:45:28;;;;;;;11.35;10.15;;;19.20;72.20;;;;;;5112786;28;20632;-65
2023/10/11 11:47:57;;;;;;;11.05;9.10;;;19.20;72.20;;;;;;5112788;28;20236;-65
2023/10/11 11:50:26;;;;;;;10.00;9.00;;;19.20;72.10;;;;;;5112165;28;20165;-65
2023/10/11 11:52:52;;;;;;;10.82;9.73;;;19.20;72.10;;;;;;5112867;28;20173;-65
2023/10/11 11:55:20;;;;;;;10.65;9.18;;;19.20;72.10;;;;;;5112499;28;20185;-65
2023/10/11 11:57:47;;;;;;;17.98;9.32;;;19.20;72.10;;;;;;5112325;28;20173;-65
2023/10/11 12:02:52;;;;;;;10.85;8.73;;;19.20;72.10;;;;;;5113016;28;20214;-64
2023/10/11 12:05:17;;;;;;;12.13;9.23;;;19.20;72.10;;;;;;5111844;28;20229;-64
2023/10/11 12:07:43;;;;;;;10.18;8.80;;;19.30;72.20;;;;;;5112571;28;20177;-64
2023/10/11 12:10:23;;;;;;;9.48;8.48;;;19.20;72.10;;;;;;5112700;28;20639;-64
2023/10/11 12:13:05;;;;;;;11.27;8.75;;;19.20;72.10;;;;;;5112201;28;20181;-64
2023/10/11 12:15:31;;;;;;;9.88;8.60;;;19.20;72.10;;;;;;5112502;28;20635;-64
2023/10/11 12:17:56;;;;;;;9.63;8.07;;;19.20;72.20;;;;;;5111868;28;20211;-64
2023/10/11 12:20:22;;;;;;;9.63;8.35;;;19.20;73.10;;;;;;5112636;28;20874;-65
2023/10/11 12:22:50;;;;;;;12.55;8.98;;;19.20;72.20;;;;;;5112576;28;20220;-64
2023/10/11 12:25:24;;;;;;;9.10;8.20;;;19.20;72.20;;;;;;5111764;28;20176;-64
2023/10/11 12:27:50;;;;;;;9.43;8.27;;;19.20;72.20;;;;;;5115822;28;20187;-64
2023/10/11 12:30:22;;;;;;;10.65;8.27;;;19.20;72.20;;;;;;5116053;28;20173;-64
2023/10/11 12:32:48;;;;;;;11.45;9.27;;;19.20;72.30;;;;;;5115820;28;20173;-65
2023/10/11 12:35:13;;;;;;;9.90;8.45;;;19.30;72.40;;;;;;5116192;28;20251;-64
2023/10/11 12:37:42;;;;;;;10.23;8.43;;;19.20;72.30;;;;;;5116434;28;20176;-64
2023/10/11 12:40:12;;;;;;;9.30;8.25;;;19.20;72.30;;;;;;5115464;28;20252;-64
2023/10/11 12:42:38;;;;;;;11.63;7.85;;;19.20;72.20;;;;;;5116165;28;20216;-65
2023/10/11 12:45:07;;;;;;;10.55;8.75;;;19.20;72.30;;;;;;5115970;28;20177;-65
2023/10/11 12:47:36;;;;;;;10.75;8.38;;;19.20;72.30;;;;;;5115161;28;20228;-65
2023/10/11 12:50:03;;;;;;;10.35;8.77;;;19.20;72.40;;;;;;5115988;28;20177;-65
2023/10/11 12:52:30;;;;;;;11.07;8.63;;;19.20;72.30;;;;;;5115871;28;20192;-65
2023/10/11 12:54:57;;;;;;;8.32;7.47;;;19.20;72.30;;;;;;5115344;28;20180;-66
2023/10/11 12:57:27;;;;;;;9.35;8.40;;;19.20;72.40;;;;;;5115790;28;20288;-66
2023/10/11 12:59:52;;;;;;;9.18;8.20;;;19.20;72.40;;;;;;5115215;28;20585;-64
2023/10/11 13:02:21;;;;;;;9.35;8.18;;;19.20;72.40;;;;;;5115642;28;20715;-64
2023/10/11 13:04:47;;;;;;;9.90;7.97;;;19.20;72.50;;;;;;5115943;28;20191;-65
2023/10/11 13:07:15;;;;;;;11.80;8.40;;;19.20;72.50;;;;;;5114902;28;20571;-65
2023/10/11 13:09:41;;;;;;;9.18;8.27;;;19.20;72.50;;;;;;5115955;28;20169;-64
2023/10/11 13:12:17;;;;;;;8.82;7.93;;;19.20;72.50;;;;;;5115532;28;20246;-64
2023/10/11 13:14:45;;;;;;;9.85;8.38;;;19.10;72.50;;;;;;5115100;28;20177;-64
2023/10/11 13:17:15;;;;;;;8.55;7.72;;;19.10;72.50;;;;;;5115621;28;20170;-65
2023/10/11 13:19:43;;;;;;;8.90;8.00;;;19.10;72.50;;;;;;5115501;28;20260;-64
2023/10/11 13:22:09;;;;;;;8.77;7.60;;;19.10;72.50;;;;;;5114334;28;20205;-64
2023/10/11 13:24:35;;;;;;;7.95;7.13;;;19.20;72.60;;;;;;5115379;28;20177;-64
2023/10/11 13:27:00;;;;;;;8.13;7.32;;;19.10;72.50;;;;;;5115050;28;20181;-64
2023/10/11 13:29:27;;;;;;;10.10;8.70;;;19.20;72.50;;;;;;5114728;28;20678;-65
2023/10/11 13:31:57;;;;;;;8.85;7.30;;;19.20;72.50;;;;;;5115587;28;20563;-65
2023/10/11 13:34:29;;;;;;;9.55;8.40;;;19.10;72.50;;;;;;5115279;28;20264;-64
2023/10/11 13:36:59;;;;;;;9.68;8.25;;;19.10;72.50;;;;;;5114400;28;20177;-65
2023/10/11 13:39:27;;;;;;;8.52;7.72;;;19.10;72.50;;;;;;5114954;28;20222;-64
2023/10/11 13:41:56;;;;;;;8.40;7.47;;;19.10;73.30;;;;;;5115211;28;20208;-65
2023/10/11 13:44:25;;;;;;;8.77;7.88;;;19.20;72.50;;;;;;5114174;28;20169;-65
2023/10/11 13:46:52;;;;;;;8.73;7.82;;;19.10;72.50;;;;;;5115208;28;20181;-65
2023/10/11 13:49:25;;;;;;;8.75;7.75;;;19.20;72.50;;;;;;5113777;28;20594;-65